createdAt,value
2018-09-15T00:01:29.481Z,13.75
2018-09-15T00:03:59.248Z,15.00
2018-09-15T00:06:30.429Z,15.25
2018-09-15T00:08:59.945Z,16.75
2018-09-15T00:11:29.261Z,15.75
2018-09-15T00:13:59.018Z,16.00
2018-09-15T00:16:29.804Z,16.75
2018-09-15T00:18:59.361Z,15.75
2018-09-15T00:21:28.745Z,14.50
2018-09-15T00:23:58.167Z,17.25
2018-09-15T00:26:28.981Z,14.00
2018-09-15T00:29:01.010Z,14.75
2018-09-15T00:31:30.610Z,16.25
2018-09-15T00:34:02.648Z,19.25
2018-09-15T00:36:33.106Z,15.00
2018-09-15T00:39:03.129Z,15.50
2018-09-15T00:41:32.477Z,15.00
2018-09-15T00:44:01.934Z,16.25
2018-09-15T00:46:31.917Z,18.00
2018-09-15T00:49:01.905Z,16.00
2018-09-15T00:51:31.294Z,15.25
2018-09-15T00:54:01.122Z,18.25
2018-09-15T00:56:30.447Z,18.75
2018-09-15T00:59:00.379Z,16.50
2018-09-15T01:01:33.103Z,20.50
2018-09-15T01:04:04.015Z,16.75
2018-09-15T01:06:37.558Z,19.50
2018-09-15T01:09:09.163Z,19.00
2018-09-15T01:11:40.599Z,20.50
2018-09-15T01:14:09.993Z,16.75
2018-09-15T01:16:39.934Z,16.50
2018-09-15T01:19:09.724Z,11.75
2018-09-15T01:21:39.149Z,11.50
2018-09-15T01:24:09.164Z,12.25
2018-09-15T01:26:38.660Z,10.25
2018-09-15T01:29:08.275Z,9.00
2018-09-15T01:31:41.719Z,12.25
2018-09-15T01:34:11.446Z,13.00
2018-09-15T01:36:40.854Z,9.25
2018-09-15T01:39:11.828Z,11.75
2018-09-15T01:41:41.404Z,10.00
2018-09-15T01:44:11.340Z,9.00
2018-09-15T01:46:41.704Z,9.75
2018-09-15T01:49:11.051Z,9.75
2018-09-15T01:51:41.332Z,9.00
2018-09-15T01:54:12.170Z,12.00
2018-09-15T01:56:41.855Z,10.00
2018-09-15T01:59:12.035Z,9.25
2018-09-15T02:01:41.773Z,8.25
2018-09-15T02:04:11.251Z,10.50
2018-09-15T02:09:22.730Z,7.00
2018-09-15T02:11:52.869Z,8.75
2018-09-15T02:14:22.436Z,8.00
2018-09-15T02:16:52.489Z,8.00
2018-09-15T02:19:22.517Z,8.25
2018-09-15T02:21:52.279Z,11.00
2018-09-15T02:24:21.573Z,8.00
2018-09-15T02:26:51.608Z,9.00
2018-09-15T02:29:23.083Z,7.00
2018-09-15T02:31:53.184Z,8.50
2018-09-15T02:34:25.681Z,6.00
2018-09-15T02:36:56.709Z,7.00
2018-09-15T02:39:29.753Z,9.25
2018-09-15T02:41:59.518Z,7.50
2018-09-15T02:44:29.642Z,6.50
2018-09-15T02:47:00.232Z,7.00
2018-09-15T02:49:30.502Z,6.25
2018-09-15T02:52:03.013Z,6.00
2018-09-15T02:54:36.308Z,8.00
2018-09-15T02:57:06.875Z,7.00
2018-09-15T02:59:36.268Z,6.50
2018-09-15T03:02:06.657Z,6.25
2018-09-15T03:04:37.008Z,7.00
2018-09-15T03:07:06.456Z,4.00
2018-09-15T03:09:35.884Z,5.25
2018-09-15T03:12:06.141Z,6.00
2018-09-15T03:14:39.664Z,6.25
2018-09-15T03:17:09.258Z,4.25
2018-09-15T03:19:39.645Z,6.75
2018-09-15T03:22:09.873Z,7.00
2018-09-15T03:24:43.392Z,4.00
2018-09-15T03:27:15.349Z,5.00
2018-09-15T03:29:45.330Z,6.25
2018-09-15T03:32:16.272Z,4.50
2018-09-15T03:34:47.367Z,4.00
2018-09-15T03:37:18.377Z,5.50
2018-09-15T03:39:50.201Z,4.25
2018-09-15T03:42:19.746Z,4.00
2018-09-15T03:44:51.732Z,6.00
2018-09-15T03:47:22.257Z,5.25
2018-09-15T03:49:56.816Z,6.00
2018-09-15T03:52:26.970Z,6.00
2018-09-15T03:54:57.603Z,6.00
2018-09-15T03:57:28.982Z,4.00
2018-09-15T04:00:00.117Z,5.75
2018-09-15T04:02:30.607Z,5.00
2018-09-15T04:05:03.267Z,6.00
2018-09-15T04:07:32.908Z,6.00
2018-09-15T04:10:03.382Z,5.75
2018-09-15T04:12:38.217Z,4.00
2018-09-15T04:15:09.982Z,4.25
2018-09-15T04:17:44.126Z,6.75
2018-09-15T04:20:13.895Z,4.00
2018-09-15T04:22:48.271Z,4.75
2018-09-15T04:25:17.791Z,4.00
2018-09-15T04:27:48.485Z,6.00
2018-09-15T04:30:18.320Z,4.00
2018-09-15T04:32:48.611Z,6.00
2018-09-15T04:35:20.502Z,5.50
2018-09-15T04:37:50.545Z,4.00
2018-09-15T04:40:20.517Z,4.25
2018-09-15T04:42:57.113Z,4.25
2018-09-15T04:45:27.683Z,6.00
2018-09-15T04:47:58.016Z,6.00
2018-09-15T04:50:27.357Z,5.00
2018-09-15T04:53:00.897Z,5.25
2018-09-15T04:55:31.272Z,7.00
2018-09-15T04:58:02.160Z,4.75
2018-09-15T05:00:33.356Z,5.25
2018-09-15T05:03:04.693Z,3.25
2018-09-15T05:05:36.946Z,4.00
2018-09-15T05:08:07.399Z,4.00
2018-09-15T05:10:37.827Z,4.00
2018-09-15T05:13:07.645Z,4.00
2018-09-15T05:15:38.375Z,6.50
2018-09-15T05:18:08.041Z,6.00
2018-09-15T05:20:38.418Z,4.00
2018-09-15T05:23:08.057Z,4.75
2018-09-15T05:25:37.608Z,5.75
2018-09-15T05:28:07.330Z,6.00
2018-09-15T05:30:37.036Z,5.50
2018-09-15T05:33:07.437Z,6.00
2018-09-15T05:35:36.737Z,6.00
2018-09-15T05:38:06.176Z,7.00
2018-09-15T05:40:37.694Z,6.00
2018-09-15T05:43:08.053Z,5.75
2018-09-15T05:45:37.840Z,6.00
2018-09-15T05:48:07.603Z,6.00
2018-09-15T05:50:37.448Z,6.50
2018-09-15T05:53:07.904Z,6.00
2018-09-15T05:55:37.353Z,7.00
2018-09-15T05:58:06.731Z,6.75
2018-09-15T06:00:36.271Z,4.75
2018-09-15T06:03:05.682Z,6.75
2018-09-15T06:05:35.350Z,7.00
2018-09-15T06:08:05.676Z,8.00
2018-09-15T06:10:35.108Z,6.25
2018-09-15T06:13:04.822Z,6.00
2018-09-15T06:15:34.744Z,7.75
2018-09-15T06:18:05.404Z,8.75
2018-09-15T06:20:35.202Z,7.75
2018-09-15T06:23:04.654Z,7.00
2018-09-15T06:25:35.519Z,6.75
2018-09-15T06:28:04.848Z,9.00
2018-09-15T06:30:45.497Z,7.00
2018-09-15T06:33:15.324Z,7.25
2018-09-15T06:35:47.040Z,8.00
2018-09-15T06:38:18.746Z,8.50
2018-09-15T06:40:50.661Z,7.25
2018-09-15T06:43:20.481Z,7.75
2018-09-15T06:45:50.789Z,7.75
2018-09-15T06:48:20.125Z,7.00
2018-09-15T06:50:49.674Z,8.00
2018-09-15T06:53:22.433Z,7.75
2018-09-15T06:55:52.123Z,9.75
2018-09-15T07:01:04.481Z,7.00
2018-09-15T07:03:35.604Z,5.00
2018-09-15T07:06:07.665Z,7.00
2018-09-15T07:08:37.074Z,9.00
2018-09-15T07:11:07.358Z,6.75
2018-09-15T07:13:37.219Z,8.25
2018-09-15T07:16:07.014Z,8.00
2018-09-15T07:18:37.794Z,8.75
2018-09-15T07:21:08.043Z,11.25
2018-09-15T07:23:38.372Z,9.00
2018-09-15T07:26:08.578Z,10.00
2018-09-15T07:28:38.949Z,8.00
2018-09-15T07:31:09.859Z,8.50
2018-09-15T07:33:40.525Z,7.75
2018-09-15T07:36:10.752Z,8.25
2018-09-15T07:38:42.590Z,8.00
2018-09-15T07:41:14.816Z,8.50
2018-09-15T07:43:49.197Z,9.25
2018-09-15T07:46:21.320Z,9.00
2018-09-15T07:48:54.484Z,7.00
2018-09-15T07:51:33.482Z,9.25
2018-09-15T07:54:03.784Z,9.75
2018-09-15T07:56:35.527Z,9.50
2018-09-15T07:59:05.566Z,9.00
2018-09-15T08:01:36.895Z,7.50
2018-09-15T08:04:07.895Z,9.00
2018-09-15T08:06:38.944Z,9.75
2018-09-15T08:09:13.349Z,9.00
2018-09-15T08:11:43.270Z,10.00
2018-09-15T08:14:13.787Z,7.75
2018-09-15T08:16:44.441Z,12.75
2018-09-15T08:19:23.262Z,7.00
2018-09-15T08:21:54.126Z,7.75
2018-09-15T08:24:28.470Z,8.75
2018-09-15T08:26:59.466Z,8.25
2018-09-15T08:29:29.862Z,6.75
2018-09-15T08:32:04.119Z,7.00
2018-09-15T08:34:33.574Z,8.00
2018-09-15T08:37:03.916Z,8.00
2018-09-15T08:39:35.448Z,10.75
2018-09-15T08:42:06.859Z,7.50
2018-09-15T08:44:36.399Z,10.00
2018-09-15T08:47:07.719Z,10.50
2018-09-15T08:49:40.138Z,8.25
2018-09-15T08:52:10.202Z,8.75
2018-09-15T08:54:41.287Z,8.25
2018-09-15T08:57:12.598Z,7.00
2018-09-15T08:59:51.041Z,8.00
2018-09-15T09:02:21.539Z,9.00
2018-09-15T09:04:55.311Z,9.25
2018-09-15T09:07:25.852Z,8.00
2018-09-15T09:09:58.173Z,7.00
2018-09-15T09:12:27.807Z,9.00
2018-09-15T09:14:57.637Z,9.00
2018-09-15T09:17:28.683Z,7.75
2018-09-15T09:19:58.280Z,8.00
2018-09-15T09:22:28.361Z,11.00
2018-09-15T09:25:14.027Z,9.50
2018-09-15T09:27:46.214Z,8.50
2018-09-15T09:30:18.265Z,8.00
2018-09-15T09:32:48.006Z,7.75
2018-09-15T09:35:18.397Z,8.50
2018-09-15T09:37:49.005Z,7.00
2018-09-15T09:40:19.951Z,8.00
2018-09-15T09:42:57.362Z,9.00
2018-09-15T09:45:28.245Z,8.00
2018-09-15T09:47:58.925Z,8.00
2018-09-15T09:50:29.618Z,9.00
2018-09-15T09:53:00.165Z,8.00
2018-09-15T09:55:33.885Z,9.00
2018-09-15T09:58:04.729Z,6.50
2018-09-15T10:00:40.706Z,8.00
2018-09-15T10:03:13.839Z,6.00
2018-09-15T10:05:44.438Z,8.00
2018-09-15T10:08:14.433Z,9.00
2018-09-15T10:10:45.355Z,7.75
2018-09-15T10:13:15.225Z,7.75
2018-09-15T10:15:46.996Z,7.75
2018-09-15T10:18:19.942Z,8.25
2018-09-15T10:20:51.908Z,8.00
2018-09-15T10:23:22.594Z,7.50
2018-09-15T10:25:53.967Z,7.00
2018-09-15T10:28:27.245Z,9.75
2018-09-15T10:31:14.019Z,7.25
2018-09-15T10:33:52.040Z,6.75
2018-09-15T10:36:24.086Z,6.50
2018-09-15T10:39:04.393Z,7.25
2018-09-15T10:41:38.524Z,5.75
2018-09-15T10:44:09.729Z,6.50
2018-09-15T10:46:40.824Z,6.25
2018-09-15T10:49:10.675Z,6.50
2018-09-15T10:51:41.961Z,10.00
2018-09-15T10:54:11.405Z,8.00
2018-09-15T10:56:41.913Z,6.25
2018-09-15T10:59:11.695Z,6.75
2018-09-15T11:01:44.365Z,5.25
2018-09-15T11:04:18.532Z,6.00
2018-09-15T11:09:32.140Z,6.00
2018-09-15T11:12:12.000Z,6.25
2018-09-15T11:14:44.016Z,6.75
2018-09-15T11:17:19.423Z,4.00
2018-09-15T11:19:50.932Z,4.25
2018-09-15T11:22:25.321Z,5.00
2018-09-15T11:24:55.524Z,4.75
2018-09-15T11:27:30.430Z,4.00
2018-09-15T11:30:00.873Z,4.00
2018-09-15T11:32:31.429Z,4.25
2018-09-15T11:35:02.202Z,4.00
2018-09-15T11:37:34.905Z,5.00
2018-09-15T11:40:07.580Z,4.00
2018-09-15T11:42:38.650Z,6.00
2018-09-15T11:45:09.551Z,6.00
2018-09-15T11:47:44.217Z,4.25
2018-09-15T11:50:21.993Z,6.00
2018-09-15T11:52:54.248Z,5.75
2018-09-15T11:55:23.813Z,5.00
2018-09-15T11:57:54.067Z,6.00
2018-09-15T12:00:29.010Z,4.50
2018-09-15T12:03:00.585Z,5.00
2018-09-15T12:05:30.505Z,5.00
2018-09-15T12:08:00.295Z,7.00
2018-09-15T12:10:30.514Z,6.00
2018-09-15T12:13:00.437Z,6.00
2018-09-15T12:15:31.879Z,5.00
2018-09-15T12:18:08.167Z,5.50
2018-09-15T12:20:41.691Z,6.00
2018-09-15T12:23:16.417Z,5.75
2018-09-15T12:25:48.150Z,7.00
2018-09-15T12:28:23.495Z,6.00
2018-09-15T12:30:56.131Z,6.00
2018-09-15T12:33:27.337Z,7.50
2018-09-15T12:35:59.104Z,7.50
2018-09-15T12:38:28.814Z,7.25
2018-09-15T12:40:58.853Z,6.75
2018-09-15T12:43:29.447Z,8.00
2018-09-15T12:46:01.578Z,8.25
2018-09-15T12:48:33.168Z,7.50
2018-09-15T12:51:03.187Z,7.25
2018-09-15T12:53:35.355Z,8.00
2018-09-15T12:56:05.067Z,9.00
2018-09-15T12:58:36.221Z,7.75
2018-09-15T13:01:06.657Z,8.00
2018-09-15T13:03:38.320Z,7.25
2018-09-15T13:06:09.501Z,7.50
2018-09-15T13:08:41.221Z,7.50
2018-09-15T13:11:11.765Z,8.75
2018-09-15T13:13:43.354Z,8.00
2018-09-15T13:16:20.507Z,7.75
2018-09-15T13:18:52.924Z,7.25
2018-09-15T13:21:23.410Z,8.50
2018-09-15T13:23:58.949Z,7.75
2018-09-15T13:26:28.797Z,6.75
2018-09-15T13:29:01.513Z,7.00
2018-09-15T13:31:34.691Z,6.25
2018-09-15T13:34:05.566Z,7.75
2018-09-15T13:36:35.863Z,7.75
2018-09-15T13:39:07.961Z,6.00
2018-09-15T13:41:38.859Z,7.50
2018-09-15T13:44:08.556Z,6.75
2018-09-15T13:46:41.664Z,6.00
2018-09-15T13:49:12.086Z,6.00
2018-09-15T13:51:44.627Z,6.75
2018-09-15T13:54:15.473Z,7.75
2018-09-15T13:56:45.922Z,7.75
2018-09-15T13:59:15.480Z,6.00
2018-09-15T14:01:48.029Z,6.50
2018-09-15T14:04:18.313Z,6.25
2018-09-15T14:06:50.581Z,5.00
2018-09-15T14:09:21.543Z,6.00
2018-09-15T14:11:53.497Z,6.00
2018-09-15T14:14:24.389Z,6.00
2018-09-15T14:16:55.968Z,6.00
2018-09-15T14:19:27.303Z,6.50
2018-09-15T14:21:58.205Z,7.00
2018-09-15T14:24:29.013Z,7.00
2018-09-15T14:27:01.715Z,7.50
2018-09-15T14:29:35.121Z,7.00
2018-09-15T14:32:09.414Z,6.75
2018-09-15T14:34:40.294Z,8.00
2018-09-15T14:37:09.789Z,8.00
2018-09-15T14:39:43.747Z,8.00
2018-09-15T14:42:13.207Z,7.50
2018-09-15T14:44:43.184Z,7.75
2018-09-15T14:47:14.300Z,5.25
2018-09-15T14:49:45.182Z,6.75
2018-09-15T14:52:16.332Z,8.75
2018-09-15T14:54:48.121Z,8.50
2018-09-15T14:57:23.452Z,7.25
2018-09-15T14:59:54.985Z,7.50
2018-09-15T15:02:27.649Z,5.50
2018-09-15T15:04:59.481Z,7.50
2018-09-15T15:07:35.239Z,6.50
2018-09-15T15:10:08.063Z,6.50
2018-09-15T15:12:38.729Z,7.25
2018-09-15T15:15:08.995Z,7.25
2018-09-15T15:17:44.701Z,6.75
2018-09-15T15:20:17.342Z,8.00
2018-09-15T15:22:48.098Z,9.00
2018-09-15T15:25:20.462Z,9.00
2018-09-15T15:27:50.333Z,9.00
2018-09-15T15:30:21.827Z,9.00
2018-09-15T15:32:51.383Z,9.00
2018-09-15T15:35:22.502Z,8.00
2018-09-15T15:38:07.733Z,9.00
2018-09-15T15:40:45.791Z,9.00
2018-09-15T15:43:16.424Z,9.00
2018-09-15T15:45:59.453Z,9.00
2018-09-15T15:48:32.027Z,9.00
2018-09-15T15:51:10.672Z,9.75
2018-09-15T15:53:42.211Z,10.25
2018-09-15T15:56:13.898Z,10.00
2018-09-15T15:58:45.017Z,10.75
2018-09-15T16:01:19.682Z,10.75
2018-09-15T16:03:55.075Z,11.00
2018-09-15T16:06:26.224Z,9.25
2018-09-15T16:08:55.706Z,10.50
2018-09-15T16:11:26.813Z,8.75
2018-09-15T16:14:02.057Z,9.00
2018-09-15T16:16:32.138Z,9.50
2018-09-15T16:19:11.238Z,9.50
2018-09-15T16:21:45.066Z,9.75
2018-09-15T16:24:17.257Z,10.00
2018-09-15T16:26:53.862Z,10.50
2018-09-15T16:32:03.561Z,10.50
2018-09-15T16:34:39.708Z,9.75
2018-09-15T16:40:17.696Z,10.75
2018-09-15T16:42:51.773Z,13.00
2018-09-15T16:45:23.641Z,11.25
2018-09-15T16:47:57.398Z,11.00
2018-09-15T16:50:28.265Z,11.75
2018-09-15T16:53:02.400Z,13.25
2018-09-15T16:55:34.766Z,11.00
2018-09-15T16:58:12.341Z,13.50
2018-09-15T17:00:42.382Z,14.00
2018-09-15T17:03:12.163Z,13.75
2018-09-15T17:05:48.111Z,14.50
2018-09-15T17:08:18.657Z,13.50
2018-09-15T17:10:59.093Z,13.00
2018-09-15T17:13:29.508Z,12.75
2018-09-15T17:16:01.606Z,14.75
2018-09-15T17:18:35.576Z,15.00
2018-09-15T17:21:10.787Z,15.00
2018-09-15T17:23:43.594Z,16.75
2018-09-15T17:26:14.166Z,17.00
2018-09-15T17:28:53.515Z,16.75
2018-09-15T17:31:24.311Z,16.00
2018-09-15T17:33:59.351Z,15.00
2018-09-15T17:36:36.112Z,17.00
2018-09-15T17:39:08.937Z,18.25
2018-09-15T17:44:29.178Z,18.50
2018-09-15T17:46:59.228Z,15.25
2018-09-15T17:49:33.824Z,20.25
2018-09-15T17:52:10.553Z,17.00
2018-09-15T17:54:44.258Z,17.75
2018-09-15T17:57:18.957Z,21.00
2018-09-15T17:59:59.964Z,24.25
2018-09-15T18:02:32.106Z,32.00
2018-09-15T18:05:14.039Z,42.50
2018-09-15T18:07:52.523Z,32.00
2018-09-15T18:10:26.185Z,28.25
2018-09-15T18:13:25.870Z,30.25
2018-09-15T18:16:00.738Z,31.00
2018-09-15T18:18:38.075Z,29.50
2018-09-15T18:21:11.803Z,28.25
2018-09-15T18:23:43.567Z,29.75
2018-09-15T18:26:13.153Z,26.75
2018-09-15T18:28:44.748Z,24.00
2018-09-15T18:31:14.341Z,24.00
2018-09-15T18:33:45.918Z,25.50
2018-09-15T18:36:16.809Z,25.00
2018-09-15T18:38:51.210Z,31.25
2018-09-15T18:41:25.219Z,21.25
2018-09-15T18:43:56.543Z,20.00
2018-09-15T18:46:28.579Z,18.00
2018-09-15T18:52:03.055Z,23.50
2018-09-15T18:54:36.406Z,22.75
2018-09-15T18:57:07.871Z,20.25
2018-09-15T18:59:47.239Z,24.50
2018-09-15T19:02:19.946Z,21.75
2018-09-15T19:04:50.650Z,22.75
2018-09-15T19:07:21.111Z,22.25
2018-09-15T19:09:51.609Z,24.25
2018-09-15T19:12:31.625Z,23.25
2018-09-15T19:15:15.836Z,22.00
2018-09-15T19:17:47.928Z,21.00
2018-09-15T19:20:19.323Z,21.00
2018-09-15T19:22:49.435Z,19.00
2018-09-15T19:25:21.277Z,19.00
2018-09-15T19:27:54.932Z,17.75
2018-09-15T19:30:31.276Z,18.75
2018-09-15T19:33:11.670Z,17.75
2018-09-15T19:38:21.867Z,18.00
2018-09-15T19:40:51.533Z,19.50
2018-09-15T19:49:27.082Z,18.00
2018-09-15T19:51:58.125Z,21.00
2018-09-15T19:54:30.032Z,21.00
2018-09-15T19:57:08.417Z,22.00
2018-09-15T19:59:39.815Z,21.25
2018-09-15T20:02:16.836Z,23.00
2018-09-15T20:04:49.674Z,21.75
2018-09-15T20:07:20.541Z,20.00
2018-09-15T20:09:53.273Z,19.75
2018-09-15T20:12:24.363Z,18.50
2018-09-15T20:14:57.300Z,21.75
2018-09-15T20:17:31.480Z,22.00
2018-09-15T20:20:00.335Z,22.75
2018-09-15T20:22:33.679Z,20.75
2018-09-15T20:25:08.376Z,24.75
2018-09-15T20:27:40.101Z,23.50
2018-09-15T20:32:49.761Z,23.25
2018-09-15T20:35:19.868Z,24.25
2018-09-15T20:37:50.285Z,25.75
2018-09-15T20:40:22.697Z,24.75
2018-09-15T20:42:54.320Z,24.75
2018-09-15T20:45:24.695Z,22.75
2018-09-15T20:47:57.948Z,22.00
2018-09-15T20:50:27.590Z,23.00
2018-09-15T20:52:57.768Z,23.00
2018-09-15T20:55:31.570Z,22.00
2018-09-15T20:58:05.890Z,21.50
2018-09-15T21:00:40.639Z,21.00
2018-09-15T21:03:11.187Z,24.00
2018-09-15T21:05:42.325Z,19.50
2018-09-15T21:08:18.563Z,22.25
2018-09-15T21:10:49.660Z,23.25
2018-09-15T21:13:20.639Z,23.25
2018-09-15T21:16:04.243Z,24.00
2018-09-15T21:18:35.743Z,25.25
2018-09-15T21:21:11.929Z,27.25
2018-09-15T21:23:45.942Z,27.00
2018-09-15T21:26:17.315Z,25.00
2018-09-15T21:28:48.270Z,30.25
2018-09-15T21:31:21.783Z,27.00
2018-09-15T21:33:51.298Z,27.00
2018-09-15T21:36:20.904Z,26.75
2018-09-15T21:38:50.380Z,26.00
2018-09-15T21:41:20.573Z,29.75
2018-09-15T21:43:51.128Z,25.25
2018-09-15T21:46:22.453Z,30.00
2018-09-15T21:48:53.001Z,26.00
2018-09-15T21:51:25.517Z,26.50
2018-09-15T21:53:55.000Z,26.75
2018-09-15T21:56:24.634Z,26.00
2018-09-15T21:58:56.124Z,33.00
2018-09-15T22:01:25.845Z,31.75
2018-09-15T22:04:01.710Z,28.75
2018-09-15T22:06:34.611Z,32.00
2018-09-15T22:09:06.270Z,31.50
2018-09-15T22:11:36.018Z,29.75
2018-09-15T22:14:06.697Z,28.75
2018-09-15T22:16:37.257Z,31.00
2018-09-15T22:19:07.587Z,30.00
2018-09-15T22:21:38.477Z,29.25
2018-09-15T22:24:11.703Z,27.50
2018-09-15T22:26:47.470Z,26.50
2018-09-15T22:29:20.666Z,24.75
2018-09-15T22:31:52.803Z,26.75
2018-09-15T22:34:27.537Z,27.25
2018-09-15T22:36:58.164Z,28.75
2018-09-15T22:39:33.625Z,29.75
2018-09-15T22:42:03.623Z,29.00
2018-09-15T22:44:33.370Z,28.50
2018-09-15T22:47:03.584Z,25.00
2018-09-15T22:49:36.651Z,27.25
2018-09-15T22:52:06.128Z,29.00
2018-09-15T22:54:40.397Z,29.50
2018-09-15T22:57:11.939Z,28.00
2018-09-15T22:59:51.312Z,23.75
2018-09-15T23:02:22.863Z,28.25
2018-09-15T23:04:55.688Z,26.75
2018-09-15T23:07:28.870Z,29.25
2018-09-15T23:09:58.895Z,31.50
2018-09-15T23:12:30.595Z,31.25
2018-09-15T23:15:04.623Z,31.25
2018-09-15T23:17:35.960Z,32.25
2018-09-15T23:20:06.777Z,33.75
2018-09-15T23:22:38.647Z,35.00
2018-09-15T23:25:08.438Z,35.50
2018-09-15T23:27:37.964Z,35.25
2018-09-15T23:30:08.446Z,33.00
2018-09-15T23:32:41.425Z,35.25
2018-09-15T23:35:12.606Z,33.50
2018-09-15T23:37:42.140Z,36.00
2018-09-15T23:40:15.090Z,32.75
2018-09-15T23:42:46.308Z,32.50
2018-09-15T23:45:18.579Z,32.00
2018-09-15T23:47:49.278Z,34.50
2018-09-15T23:50:19.669Z,36.75
2018-09-15T23:52:50.002Z,32.25
2018-09-15T23:55:25.262Z,32.50
2018-09-15T23:57:55.424Z,33.25
